createdAt,value
2017-08-03T00:00:43.376Z,1008.1
2017-08-03T00:01:43.407Z,1008.11
2017-08-03T00:02:43.337Z,1008.14
2017-08-03T00:03:43.317Z,1008.05
2017-08-03T00:04:43.297Z,1008.01
2017-08-03T00:05:43.278Z,1008
2017-08-03T00:06:43.258Z,1008.03
2017-08-03T00:07:43.237Z,1008.04
2017-08-03T00:08:43.216Z,1008.09
2017-08-03T00:09:43.197Z,1008.13
2017-08-03T00:10:43.183Z,1008.16
2017-08-03T00:11:43.168Z,1008.25
2017-08-03T00:12:43.139Z,1008.24
2017-08-03T00:13:43.118Z,1008.23
2017-08-03T00:14:43.097Z,1008.24
2017-08-03T00:15:43.079Z,1008.35
2017-08-03T00:16:43.058Z,1008.4
2017-08-03T00:17:43.039Z,1008.43
2017-08-03T00:18:43.017Z,1008.4
2017-08-03T00:19:42.997Z,1008.32
2017-08-03T00:20:42.977Z,1008.28
2017-08-03T00:21:42.956Z,1008.29
2017-08-03T00:22:42.937Z,1008.19
2017-08-03T00:23:42.918Z,1008.14
2017-08-03T00:24:42.896Z,1008.08
2017-08-03T00:25:42.877Z,1008.06
2017-08-03T00:26:42.856Z,1007.97
2017-08-03T00:27:42.837Z,1007.96
2017-08-03T00:28:42.814Z,1008.01
2017-08-03T00:29:42.799Z,1007.99
2017-08-03T00:30:42.779Z,1007.96
2017-08-03T00:31:42.754Z,1007.97
2017-08-03T00:32:42.788Z,1007.97
2017-08-03T00:33:42.717Z,1008.01
2017-08-03T00:34:42.696Z,1008.04
2017-08-03T00:35:42.677Z,1007.99
2017-08-03T00:36:42.657Z,1007.95
2017-08-03T00:37:42.637Z,1008
2017-08-03T00:38:42.619Z,1007.96
2017-08-03T00:39:42.596Z,1007.92
2017-08-03T00:40:42.582Z,1007.93
2017-08-03T00:41:42.553Z,1007.89
2017-08-03T00:42:42.587Z,1007.85
2017-08-03T00:43:42.515Z,1007.84
2017-08-03T00:44:42.496Z,1007.78
2017-08-03T00:45:42.477Z,1007.75
2017-08-03T00:46:42.705Z,1007.79
2017-08-03T00:47:42.436Z,1007.71
2017-08-03T00:48:42.415Z,1007.69
2017-08-03T00:49:42.404Z,1007.67
2017-08-03T00:50:42.375Z,1007.59
2017-08-03T00:51:42.605Z,1007.54
2017-08-03T00:52:42.334Z,1007.52
2017-08-03T00:53:42.315Z,1007.45
2017-08-03T00:54:42.298Z,1007.4
2017-08-03T00:55:42.273Z,1007.38
2017-08-03T00:56:42.255Z,1007.37
2017-08-03T00:57:42.235Z,1007.39
2017-08-03T00:58:42.213Z,1007.43
2017-08-03T00:59:42.196Z,1007.47
2017-08-03T01:00:42.174Z,1007.48
2017-08-03T01:01:42.154Z,1007.45
2017-08-03T01:02:42.134Z,1007.45
2017-08-03T01:03:42.113Z,1007.42
2017-08-03T01:04:42.094Z,1007.45
2017-08-03T01:05:42.072Z,1007.36
2017-08-03T01:06:42.057Z,1007.31
2017-08-03T01:07:42.036Z,1007.33
2017-08-03T01:08:42.013Z,1007.32
2017-08-03T01:09:41.991Z,1007.26
2017-08-03T01:10:41.976Z,1007.22
2017-08-03T01:11:41.953Z,1007.21
2017-08-03T01:12:41.932Z,1007.23
2017-08-03T01:13:41.916Z,1007.26
2017-08-03T01:14:41.892Z,1007.24
2017-08-03T01:15:41.872Z,1007.23
2017-08-03T01:16:41.851Z,1007.13
2017-08-03T01:17:41.830Z,1007.14
2017-08-03T01:18:41.810Z,1007.13
2017-08-03T01:19:41.840Z,1007.06
2017-08-03T01:20:41.770Z,1007.03
2017-08-03T01:21:41.752Z,1006.97
2017-08-03T01:22:41.730Z,1006.93
2017-08-03T01:23:41.708Z,1006.97
2017-08-03T01:24:41.689Z,1006.95
2017-08-03T01:25:41.668Z,1006.86
2017-08-03T01:26:41.649Z,1006.88
2017-08-03T01:27:41.627Z,1006.92
2017-08-03T01:28:41.609Z,1006.96
2017-08-03T01:29:41.586Z,1006.95
2017-08-03T01:30:41.567Z,1006.89
2017-08-03T01:31:41.543Z,1006.94
2017-08-03T01:32:41.528Z,1006.97
2017-08-03T01:33:41.557Z,1006.95
2017-08-03T01:34:41.482Z,1006.92
2017-08-03T01:35:41.466Z,1007.02
2017-08-03T01:36:41.447Z,1006.95
2017-08-03T01:37:41.426Z,1006.83
2017-08-03T01:38:41.408Z,1006.83
2017-08-03T01:39:41.384Z,1006.82
2017-08-03T01:40:41.370Z,1006.73
2017-08-03T01:41:41.349Z,1006.77
2017-08-03T01:42:41.323Z,1006.83
2017-08-03T01:43:41.308Z,1006.75
2017-08-03T01:44:41.283Z,1006.7
2017-08-03T01:45:41.263Z,1006.64
2017-08-03T01:46:41.243Z,1006.59
2017-08-03T01:47:41.223Z,1006.57
2017-08-03T01:48:41.202Z,1006.6
2017-08-03T01:49:41.231Z,1006.61
2017-08-03T01:50:41.161Z,1006.57
2017-08-03T01:51:41.146Z,1006.59
2017-08-03T01:52:41.125Z,1006.53
2017-08-03T01:53:41.099Z,1006.55
2017-08-03T01:54:41.080Z,1006.48
2017-08-03T01:55:41.057Z,1006.39
2017-08-03T01:56:41.040Z,1006.37
2017-08-03T01:57:41.019Z,1006.4
2017-08-03T01:58:41.000Z,1006.36
2017-08-03T01:59:40.978Z,1006.31
2017-08-03T02:00:40.959Z,1006.29
2017-08-03T02:01:40.939Z,1006.2
2017-08-03T02:02:40.919Z,1006.2
2017-08-03T02:03:40.898Z,1006.23
2017-08-03T02:04:40.876Z,1006.24
2017-08-03T02:05:40.857Z,1006.18
2017-08-03T02:06:40.841Z,1006.18
2017-08-03T02:07:40.815Z,1006.2
2017-08-03T02:08:40.847Z,1006.2
2017-08-03T02:09:40.830Z,1006.28
2017-08-03T02:10:40.755Z,1006.22
2017-08-03T02:11:40.734Z,1006.23
2017-08-03T02:12:40.715Z,1006.18
2017-08-03T02:13:40.693Z,1006.11
2017-08-03T02:14:40.672Z,1006.06
2017-08-03T02:15:40.654Z,1006.02
2017-08-03T02:16:40.633Z,1006
2017-08-03T02:17:40.611Z,1006.01
2017-08-03T02:18:40.591Z,1005.98
2017-08-03T02:19:40.572Z,1006.04
2017-08-03T02:20:40.554Z,1006.2
2017-08-03T02:21:40.530Z,1006.34
2017-08-03T02:22:40.514Z,1006.26
2017-08-03T02:23:40.492Z,1006.2
2017-08-03T02:24:40.473Z,1006.22
2017-08-03T02:25:40.452Z,1006.25
2017-08-03T02:26:40.432Z,1006.26
2017-08-03T02:27:40.409Z,1006.23
2017-08-03T02:28:40.390Z,1006.19
2017-08-03T02:29:40.369Z,1006.12
2017-08-03T02:30:40.399Z,1006.04
2017-08-03T02:31:40.330Z,1006.03
2017-08-03T02:32:40.308Z,1006.07
2017-08-03T02:33:40.286Z,1006.09
2017-08-03T02:34:40.264Z,1006.14
2017-08-03T02:35:40.247Z,1006.14
2017-08-03T02:36:40.230Z,1006.27
2017-08-03T02:37:40.205Z,1006.37
2017-08-03T02:38:40.192Z,1006.44
2017-08-03T02:39:40.167Z,1006.51
2017-08-03T02:40:40.145Z,1006.42
2017-08-03T02:41:40.127Z,1006.31
2017-08-03T02:42:40.105Z,1006.3
2017-08-03T02:43:40.088Z,1006.16
2017-08-03T02:44:40.067Z,1006.13
2017-08-03T02:45:40.045Z,1006.13
2017-08-03T02:46:40.024Z,1006.09
2017-08-03T02:47:40.002Z,1006.08
2017-08-03T02:48:39.983Z,1006.01
2017-08-03T02:49:39.962Z,1006.03
2017-08-03T02:50:39.943Z,1005.93
2017-08-03T02:51:39.921Z,1005.88
2017-08-03T02:52:39.901Z,1005.81
2017-08-03T02:53:39.883Z,1005.89
2017-08-03T02:54:39.864Z,1005.93
2017-08-03T02:55:39.842Z,1005.89
2017-08-03T02:56:39.823Z,1005.92
2017-08-03T02:57:39.800Z,1005.9
2017-08-03T02:58:39.779Z,1005.9
2017-08-03T02:59:39.763Z,1005.84
2017-08-03T03:00:39.741Z,1005.79
2017-08-03T03:01:39.723Z,1005.7
2017-08-03T03:02:39.698Z,1005.67
2017-08-03T03:03:39.677Z,1005.59
2017-08-03T03:04:39.658Z,1005.64
2017-08-03T03:05:39.638Z,1005.69
2017-08-03T03:06:39.617Z,1005.77
2017-08-03T03:07:39.598Z,1005.81
2017-08-03T03:08:39.579Z,1005.81
2017-08-03T03:09:39.556Z,1005.8
2017-08-03T03:10:39.537Z,1005.84
2017-08-03T03:11:39.517Z,1005.85
2017-08-03T03:12:39.497Z,1005.81
2017-08-03T03:13:39.473Z,1005.71
2017-08-03T03:14:39.455Z,1005.61
2017-08-03T03:15:39.437Z,1005.66
2017-08-03T03:16:39.415Z,1005.64
2017-08-03T03:17:39.396Z,1005.61
2017-08-03T03:18:39.378Z,1005.56
2017-08-03T03:19:39.356Z,1005.59
2017-08-03T03:20:39.334Z,1005.59
2017-08-03T03:21:39.315Z,1005.6
2017-08-03T03:22:39.293Z,1005.6
2017-08-03T03:23:39.276Z,1005.59
2017-08-03T03:24:39.251Z,1005.58
2017-08-03T03:25:39.232Z,1005.63
2017-08-03T03:26:39.217Z,1005.69
2017-08-03T03:27:39.191Z,1005.62
2017-08-03T03:28:39.173Z,1005.54
2017-08-03T03:29:39.152Z,1005.54
2017-08-03T03:30:39.133Z,1005.47
2017-08-03T03:31:39.111Z,1005.46
2017-08-03T03:32:39.094Z,1005.46
2017-08-03T03:33:39.074Z,1005.38
2017-08-03T03:34:39.052Z,1005.31
2017-08-03T03:35:39.036Z,1005.33
2017-08-03T03:36:39.015Z,1005.28
2017-08-03T03:37:38.990Z,1005.23
2017-08-03T03:38:38.968Z,1005.18
2017-08-03T03:39:38.949Z,1005.19
2017-08-03T03:40:38.929Z,1005.1
2017-08-03T03:41:38.959Z,1005.01
2017-08-03T03:42:38.889Z,1004.97
2017-08-03T03:43:38.868Z,1004.97
2017-08-03T03:44:38.850Z,1004.96
2017-08-03T03:45:38.828Z,1004.93
2017-08-03T03:46:38.809Z,1004.89
2017-08-03T03:47:38.789Z,1004.8
2017-08-03T03:48:38.768Z,1004.76
2017-08-03T03:49:38.747Z,1004.7
2017-08-03T03:50:38.728Z,1004.77
2017-08-03T03:51:38.707Z,1004.79
2017-08-03T03:52:38.687Z,1004.71
2017-08-03T03:53:38.673Z,1004.65
2017-08-03T03:54:38.647Z,1004.64
2017-08-03T03:55:38.630Z,1004.57
2017-08-03T03:56:38.606Z,1004.56
2017-08-03T03:57:38.639Z,1004.56
2017-08-03T03:58:38.566Z,1004.53
2017-08-03T03:59:38.549Z,1004.49
2017-08-03T04:00:38.529Z,1004.41
2017-08-03T04:01:38.504Z,1004.41
2017-08-03T04:02:38.485Z,1004.41
2017-08-03T04:03:38.466Z,1004.46
2017-08-03T04:04:38.445Z,1004.48
2017-08-03T04:05:38.472Z,1004.48
2017-08-03T04:06:38.402Z,1004.46
2017-08-03T04:07:38.383Z,1004.48
2017-08-03T04:08:38.362Z,1004.52
2017-08-03T04:09:38.347Z,1004.48
2017-08-03T04:10:38.324Z,1004.45
2017-08-03T04:11:38.302Z,1004.39
2017-08-03T04:12:38.281Z,1004.34
2017-08-03T04:13:38.269Z,1004.31
2017-08-03T04:14:38.241Z,1004.42
2017-08-03T04:15:38.222Z,1004.44
2017-08-03T04:16:38.200Z,1004.48
2017-08-03T04:17:38.180Z,1004.46
2017-08-03T04:18:38.159Z,1004.45
2017-08-03T04:19:38.140Z,1004.49
2017-08-03T04:20:38.120Z,1004.49
2017-08-03T04:21:38.099Z,1004.46
2017-08-03T04:22:38.079Z,1004.52
2017-08-03T04:23:38.058Z,1004.45
2017-08-03T04:24:38.038Z,1004.42
2017-08-03T04:25:38.021Z,1004.38
2017-08-03T04:26:37.998Z,1004.35
2017-08-03T04:27:37.977Z,1004.28
2017-08-03T04:28:37.958Z,1004.32
2017-08-03T04:29:37.937Z,1004.29
2017-08-03T04:30:37.919Z,1004.32
2017-08-03T04:31:37.899Z,1004.34
2017-08-03T04:32:37.878Z,1004.31
2017-08-03T04:33:37.857Z,1004.31
2017-08-03T04:34:37.837Z,1004.29
2017-08-03T04:35:37.815Z,1004.26
2017-08-03T04:36:37.796Z,1004.22
2017-08-03T04:37:37.775Z,1004.2
2017-08-03T04:38:37.751Z,1004.18
2017-08-03T04:39:37.732Z,1004.17
2017-08-03T04:40:37.712Z,1004.16
2017-08-03T04:41:37.694Z,1004.2
2017-08-03T04:42:37.675Z,1004.31
2017-08-03T04:43:37.659Z,1004.43
2017-08-03T04:44:37.634Z,1004.56
2017-08-03T04:45:37.613Z,1004.59
2017-08-03T04:46:37.594Z,1004.67
2017-08-03T04:47:37.577Z,1004.73
2017-08-03T04:48:37.555Z,1004.66
2017-08-03T04:49:37.534Z,1004.7
2017-08-03T04:50:37.513Z,1004.6
2017-08-03T04:51:37.493Z,1004.57
2017-08-03T04:52:37.472Z,1004.6
2017-08-03T04:53:37.455Z,1004.67
2017-08-03T04:54:37.434Z,1004.7
2017-08-03T04:55:37.411Z,1004.67
2017-08-03T04:56:37.396Z,1004.66
2017-08-03T04:57:37.374Z,1004.54
2017-08-03T04:58:37.351Z,1004.49
2017-08-03T04:59:37.333Z,1004.4
2017-08-03T05:00:37.310Z,1004.3
2017-08-03T05:01:37.291Z,1004.25
2017-08-03T05:02:37.274Z,1004.27
2017-08-03T05:03:37.255Z,1004.23
2017-08-03T05:04:37.229Z,1004.27
2017-08-03T05:05:37.214Z,1004.28
2017-08-03T05:06:37.193Z,1004.27
2017-08-03T05:07:37.174Z,1004.23
2017-08-03T05:08:37.150Z,1004.24
2017-08-03T05:09:37.130Z,1004.23
2017-08-03T05:10:37.109Z,1004.21
2017-08-03T05:11:37.090Z,1004.2
2017-08-03T05:12:37.072Z,1004.18
2017-08-03T05:13:37.050Z,1004.14
2017-08-03T05:14:37.032Z,1004.16
2017-08-03T05:15:37.012Z,1004.18
2017-08-03T05:16:36.991Z,1004.17
2017-08-03T05:17:36.972Z,1004.14
2017-08-03T05:18:36.954Z,1004.11
2017-08-03T05:19:36.933Z,1004.02
2017-08-03T05:20:36.916Z,1004
2017-08-03T05:21:36.894Z,1003.92
2017-08-03T05:22:36.870Z,1003.9
2017-08-03T05:23:36.851Z,1003.91
2017-08-03T05:24:36.833Z,1003.92
2017-08-03T05:25:36.814Z,1003.84
2017-08-03T05:26:36.793Z,1003.75
2017-08-03T05:27:36.772Z,1003.7
2017-08-03T05:28:36.753Z,1003.68
2017-08-03T05:29:36.732Z,1003.72
2017-08-03T05:30:36.717Z,1003.75
2017-08-03T05:31:36.693Z,1003.79
2017-08-03T05:32:36.674Z,1003.79
2017-08-03T05:33:36.656Z,1003.7
2017-08-03T05:34:36.636Z,1003.7
2017-08-03T05:35:36.616Z,1003.61
2017-08-03T05:36:36.595Z,1003.65
2017-08-03T05:37:36.576Z,1003.66
2017-08-03T05:38:36.557Z,1003.59
2017-08-03T05:39:36.535Z,1003.66
2017-08-03T05:40:36.516Z,1003.68
2017-08-03T05:41:36.497Z,1003.76
2017-08-03T05:42:36.478Z,1003.81
2017-08-03T05:43:36.458Z,1003.78
2017-08-03T05:44:36.438Z,1003.76
2017-08-03T05:45:36.420Z,1003.77
2017-08-03T05:46:36.401Z,1003.75
2017-08-03T05:47:36.381Z,1003.81
2017-08-03T05:48:36.362Z,1003.85
2017-08-03T05:49:36.344Z,1003.8
2017-08-03T05:50:36.324Z,1003.84
2017-08-03T05:51:36.303Z,1003.75
2017-08-03T05:52:36.305Z,1003.75
2017-08-03T05:53:36.264Z,1003.71
2017-08-03T05:54:36.246Z,1003.78
2017-08-03T05:55:36.228Z,1003.78
2017-08-03T05:56:36.207Z,1003.76
2017-08-03T05:57:36.193Z,1003.76
2017-08-03T05:58:36.170Z,1003.73
2017-08-03T05:59:36.154Z,1003.74
2017-08-03T06:00:36.134Z,1003.77
2017-08-03T06:01:36.112Z,1003.71
2017-08-03T06:02:36.094Z,1003.7
2017-08-03T06:03:36.072Z,1003.66
2017-08-03T06:04:36.053Z,1003.66
2017-08-03T06:05:36.037Z,1003.61
2017-08-03T06:06:36.017Z,1003.59
2017-08-03T06:07:35.999Z,1003.65
2017-08-03T06:08:35.979Z,1003.54
2017-08-03T06:09:35.960Z,1003.56
2017-08-03T06:10:35.942Z,1003.59
2017-08-03T06:11:35.922Z,1003.6
2017-08-03T06:12:35.901Z,1003.65
2017-08-03T06:13:35.882Z,1003.58
2017-08-03T06:14:35.865Z,1003.68
2017-08-03T06:15:35.844Z,1003.69
2017-08-03T06:16:35.824Z,1003.71
2017-08-03T06:17:35.805Z,1003.68
2017-08-03T06:18:35.790Z,1003.64
2017-08-03T06:19:35.766Z,1003.64
2017-08-03T06:20:35.748Z,1003.62
2017-08-03T06:21:35.729Z,1003.58
2017-08-03T06:22:35.711Z,1003.57
2017-08-03T06:23:35.690Z,1003.57
2017-08-03T06:24:35.671Z,1003.56
2017-08-03T06:25:35.656Z,1003.51
2017-08-03T06:26:35.632Z,1003.49
2017-08-03T06:27:35.613Z,1003.49
2017-08-03T06:28:35.596Z,1003.45
2017-08-03T06:29:35.578Z,1003.44
2017-08-03T06:30:35.556Z,1003.39
2017-08-03T06:31:35.540Z,1003.37
2017-08-03T06:32:35.519Z,1003.34
2017-08-03T06:33:35.502Z,1003.36
2017-08-03T06:34:35.479Z,1003.34
2017-08-03T06:35:35.463Z,1003.32
2017-08-03T06:36:35.445Z,1003.33
2017-08-03T06:37:35.421Z,1003.36
2017-08-03T06:38:35.406Z,1003.42
2017-08-03T06:39:35.384Z,1003.46
2017-08-03T06:40:35.567Z,1003.45
2017-08-03T06:41:35.395Z,1003.48
2017-08-03T06:42:35.327Z,1003.49
2017-08-03T06:43:35.358Z,1003.51
2017-08-03T06:44:35.287Z,1003.52
2017-08-03T06:45:35.267Z,1003.56
2017-08-03T06:46:35.250Z,1003.56
2017-08-03T06:47:35.233Z,1003.55
2017-08-03T06:48:35.211Z,1003.5
2017-08-03T06:49:35.191Z,1003.43
2017-08-03T06:50:35.223Z,1003.44
2017-08-03T06:51:35.156Z,1003.42
2017-08-03T06:52:35.133Z,1003.42
2017-08-03T06:53:35.115Z,1003.44
2017-08-03T06:54:35.103Z,1003.52
2017-08-03T06:55:35.077Z,1003.52
2017-08-03T06:56:35.057Z,1003.52
2017-08-03T06:57:35.041Z,1003.61
2017-08-03T06:58:35.036Z,1003.61
2017-08-03T06:59:35.000Z,1003.68
2017-08-03T07:00:34.980Z,1003.69
2017-08-03T07:01:34.963Z,1003.68
2017-08-03T07:02:34.948Z,1003.6
2017-08-03T07:03:34.923Z,1003.65
2017-08-03T07:04:34.908Z,1003.68
2017-08-03T07:05:34.885Z,1003.65
2017-08-03T07:06:34.886Z,1003.62
2017-08-03T07:07:34.847Z,1003.61
2017-08-03T07:08:34.828Z,1003.71
2017-08-03T07:09:34.812Z,1003.63
2017-08-03T07:10:34.796Z,1003.61
2017-08-03T07:11:34.772Z,1003.67
2017-08-03T07:12:34.753Z,1003.67
2017-08-03T07:13:34.736Z,1003.66
2017-08-03T07:14:34.716Z,1003.6
2017-08-03T07:15:34.701Z,1003.65
2017-08-03T07:16:34.679Z,1003.63
2017-08-03T07:17:34.660Z,1003.59
2017-08-03T07:18:34.641Z,1003.56
2017-08-03T07:19:34.626Z,1003.59
2017-08-03T07:20:34.607Z,1003.6
2017-08-03T07:21:34.584Z,1003.64
2017-08-03T07:22:34.566Z,1003.66
2017-08-03T07:23:34.564Z,1003.67
2017-08-03T07:24:34.530Z,1003.7
2017-08-03T07:25:34.510Z,1003.62
2017-08-03T07:26:34.497Z,1003.64
2017-08-03T07:27:34.476Z,1003.64
2017-08-03T07:28:34.457Z,1003.56
2017-08-03T07:29:34.439Z,1003.52
2017-08-03T07:30:34.423Z,1003.51
2017-08-03T07:31:34.408Z,1003.54
2017-08-03T07:32:34.386Z,1003.52
2017-08-03T07:33:34.368Z,1003.58
2017-08-03T07:34:34.352Z,1003.54
2017-08-03T07:35:34.338Z,1003.58
2017-08-03T07:36:34.319Z,1003.5
2017-08-03T07:37:34.302Z,1003.45
2017-08-03T07:38:34.285Z,1003.47
2017-08-03T07:39:34.267Z,1003.49
2017-08-03T07:40:34.250Z,1003.46
2017-08-03T07:41:34.235Z,1003.4
2017-08-03T07:42:34.240Z,1003.39
2017-08-03T07:43:34.200Z,1003.39
2017-08-03T07:44:34.183Z,1003.44
2017-08-03T07:45:34.369Z,1003.41
2017-08-03T07:46:34.153Z,1003.42
2017-08-03T07:47:34.134Z,1003.38
2017-08-03T07:48:34.118Z,1003.35
2017-08-03T07:49:34.151Z,1003.35
2017-08-03T07:50:34.084Z,1003.31
2017-08-03T07:51:34.066Z,1003.32
2017-08-03T07:52:34.151Z,1003.31
2017-08-03T07:53:34.133Z,1003.34
2017-08-03T07:54:37.270Z,1003.3
2017-08-03T07:55:34.104Z,1003.37
2017-08-03T07:56:33.990Z,1003.4
2017-08-03T07:57:33.972Z,1003.46
2017-08-03T07:58:34.154Z,1003.48
2017-08-03T07:59:34.039Z,1003.5
2017-08-03T08:00:33.926Z,1003.52
2017-08-03T08:01:33.911Z,1003.49
2017-08-03T08:02:33.894Z,1003.44
2017-08-03T08:03:33.931Z,1003.39
2017-08-03T08:04:33.869Z,1003.36
2017-08-03T08:05:33.854Z,1003.44
2017-08-03T08:06:33.840Z,1003.49
2017-08-03T08:07:33.827Z,1003.47
2017-08-03T08:08:33.814Z,1003.48
2017-08-03T08:09:33.801Z,1003.61
2017-08-03T08:10:33.787Z,1003.64
2017-08-03T08:11:33.778Z,1003.74
2017-08-03T08:12:33.767Z,1003.7
2017-08-03T08:13:33.756Z,1003.54
2017-08-03T08:14:33.745Z,1003.43
2017-08-03T08:15:33.786Z,1003.43
2017-08-03T08:16:33.727Z,1003.41
2017-08-03T08:17:33.718Z,1003.41
2017-08-03T08:18:33.708Z,1003.35
2017-08-03T08:19:33.700Z,1003.33
2017-08-03T08:20:33.690Z,1003.33
2017-08-03T08:21:33.681Z,1003.32
2017-08-03T08:22:33.723Z,1003.43
2017-08-03T08:23:33.662Z,1003.37
2017-08-03T08:24:33.652Z,1003.35
2017-08-03T08:25:33.645Z,1003.48
2017-08-03T08:26:33.637Z,1003.53
2017-08-03T08:27:33.671Z,1003.49
2017-08-03T08:28:33.613Z,1003.47
2017-08-03T08:29:33.602Z,1003.51
2017-08-03T08:30:33.593Z,1003.54
2017-08-03T08:31:33.576Z,1003.4
2017-08-03T08:32:33.565Z,1003.5
2017-08-03T08:33:33.550Z,1003.45
2017-08-03T08:34:33.542Z,1003.39
2017-08-03T08:35:33.531Z,1003.4
2017-08-03T08:36:33.514Z,1003.44
2017-08-03T08:37:33.505Z,1003.55
2017-08-03T08:38:33.486Z,1003.51
2017-08-03T08:39:33.474Z,1003.47
2017-08-03T08:40:33.456Z,1003.52
2017-08-03T08:41:33.444Z,1003.55
2017-08-03T08:42:33.429Z,1003.47
2017-08-03T08:43:33.416Z,1003.47
2017-08-03T08:44:33.403Z,1003.51
2017-08-03T08:45:33.383Z,1003.49
2017-08-03T08:46:33.372Z,1003.4
2017-08-03T08:47:33.356Z,1003.49
2017-08-03T08:48:33.342Z,1003.49
2017-08-03T08:49:33.326Z,1003.51
2017-08-03T08:50:33.308Z,1003.5
2017-08-03T08:51:33.292Z,1003.49
2017-08-03T08:52:33.276Z,1003.46
2017-08-03T08:53:33.259Z,1003.36
2017-08-03T08:54:33.244Z,1003.35
2017-08-03T08:55:33.233Z,1003.34
2017-08-03T08:56:33.212Z,1003.31
2017-08-03T08:57:33.195Z,1003.44
2017-08-03T08:58:33.182Z,1003.45
2017-08-03T08:59:33.164Z,1003.45
2017-08-03T09:00:33.148Z,1003.43
2017-08-03T09:01:33.132Z,1003.38
2017-08-03T09:02:33.116Z,1003.32
2017-08-03T09:03:33.100Z,1003.33
2017-08-03T09:04:33.083Z,1003.3
2017-08-03T09:05:33.068Z,1003.32
2017-08-03T09:06:33.101Z,1003.38
2017-08-03T09:07:33.034Z,1003.27
2017-08-03T09:08:33.015Z,1003.29
2017-08-03T09:09:33.000Z,1003.29
2017-08-03T09:10:32.985Z,1003.29
2017-08-03T09:11:32.966Z,1003.32
2017-08-03T09:12:32.948Z,1003.33
2017-08-03T09:13:32.933Z,1003.31
2017-08-03T09:14:32.915Z,1003.3
2017-08-03T09:15:32.900Z,1003.27
2017-08-03T09:16:32.882Z,1003.24
2017-08-03T09:17:32.864Z,1003.26
2017-08-03T09:18:32.852Z,1003.25
2017-08-03T09:19:32.830Z,1003.29
2017-08-03T09:20:32.864Z,1003.3
2017-08-03T09:21:32.797Z,1003.3
2017-08-03T09:22:32.780Z,1003.31
2017-08-03T09:23:32.763Z,1003.3
2017-08-03T09:24:32.746Z,1003.18
2017-08-03T09:25:32.729Z,1003.24
2017-08-03T09:26:32.713Z,1003.15
2017-08-03T09:27:32.698Z,1003.19
2017-08-03T09:28:32.681Z,1003.15
2017-08-03T09:29:32.666Z,1003.13
2017-08-03T09:30:32.652Z,1003.16
2017-08-03T09:31:32.640Z,1003.15
2017-08-03T09:32:32.625Z,1003.21
2017-08-03T09:33:32.605Z,1003.17
2017-08-03T09:34:32.602Z,1003.12
2017-08-03T09:35:32.582Z,1003.14
2017-08-03T09:36:32.567Z,1003.1
2017-08-03T09:37:32.556Z,1003.06
2017-08-03T09:38:32.543Z,1003.06
2017-08-03T09:39:32.530Z,1003.11
2017-08-03T09:40:32.519Z,1003.14
2017-08-03T09:41:32.509Z,1003.02
2017-08-03T09:42:32.494Z,1003
2017-08-03T09:43:32.486Z,1003.04
2017-08-03T09:44:32.469Z,1003.06
2017-08-03T09:45:32.458Z,1003.02
2017-08-03T09:46:32.448Z,1003.01
2017-08-03T09:47:32.433Z,1003.14
2017-08-03T09:48:32.422Z,1003.04
2017-08-03T09:49:32.409Z,1002.95
2017-08-03T09:50:32.402Z,1003.05
2017-08-03T09:51:32.387Z,1003.01
2017-08-03T09:52:32.373Z,1003.01
2017-08-03T09:53:32.362Z,1003.01
2017-08-03T09:54:32.350Z,1002.94
2017-08-03T09:55:32.336Z,1002.98
2017-08-03T09:56:32.325Z,1003.02
2017-08-03T09:57:32.313Z,1003.06
2017-08-03T09:58:32.301Z,1003.01
2017-08-03T09:59:32.288Z,1003.06
2017-08-03T10:00:32.327Z,1003.13
2017-08-03T10:01:32.265Z,1003.02
2017-08-03T10:02:32.251Z,1003.01
2017-08-03T10:03:32.240Z,1002.97
2017-08-03T10:04:32.229Z,1002.94
2017-08-03T10:05:32.216Z,1002.96
2017-08-03T10:06:32.207Z,1002.92
2017-08-03T10:07:32.192Z,1002.98
2017-08-03T10:08:32.184Z,1002.91
2017-08-03T10:09:32.172Z,1002.91
2017-08-03T10:10:32.161Z,1002.91
2017-08-03T10:11:32.149Z,1002.9
2017-08-03T10:12:32.138Z,1002.85
2017-08-03T10:13:32.124Z,1002.92
2017-08-03T10:14:32.116Z,1002.95
2017-08-03T10:15:32.102Z,1002.94
2017-08-03T10:16:32.090Z,1002.97
2017-08-03T10:17:32.079Z,1003.07
2017-08-03T10:18:32.066Z,1003.02
2017-08-03T10:19:32.054Z,1003
2017-08-03T10:20:32.044Z,1003.03
2017-08-03T10:21:32.034Z,1003.03
2017-08-03T10:22:32.020Z,1003.05
2017-08-03T10:23:32.010Z,1003.08
2017-08-03T10:24:32.017Z,1002.96
2017-08-03T10:25:31.977Z,1002.96
2017-08-03T10:26:31.964Z,1003.05
2017-08-03T10:27:31.950Z,1002.99
2017-08-03T10:28:31.940Z,1003.04
2017-08-03T10:29:31.935Z,1002.96
2017-08-03T10:30:31.911Z,1002.96
2017-08-03T10:31:31.902Z,1002.94
2017-08-03T10:32:31.885Z,1003.02
2017-08-03T10:33:31.870Z,1003.02
2017-08-03T10:34:31.861Z,1003
2017-08-03T10:35:31.891Z,1002.96
2017-08-03T10:36:31.878Z,1002.93
2017-08-03T10:37:31.813Z,1002.87
2017-08-03T10:38:31.809Z,1002.91
2017-08-03T10:39:31.787Z,1002.96
2017-08-03T10:40:31.772Z,1002.9
2017-08-03T10:41:31.758Z,1002.96
2017-08-03T10:42:31.744Z,1002.86
2017-08-03T10:43:31.730Z,1002.87
2017-08-03T10:44:31.723Z,1002.8
2017-08-03T10:45:31.705Z,1002.77
2017-08-03T10:46:31.688Z,1002.79
2017-08-03T10:47:31.675Z,1002.74
2017-08-03T10:48:31.664Z,1002.9
2017-08-03T10:49:31.651Z,1002.77
2017-08-03T10:50:31.635Z,1002.74
2017-08-03T10:51:31.618Z,1002.79
2017-08-03T10:52:31.601Z,1002.75
2017-08-03T10:53:31.590Z,1002.76
2017-08-03T10:54:31.574Z,1002.83
2017-08-03T10:55:31.609Z,1002.89
2017-08-03T10:56:31.546Z,1002.94
2017-08-03T10:57:31.528Z,1002.78
2017-08-03T10:58:31.513Z,1002.89
2017-08-03T10:59:31.500Z,1002.96
2017-08-03T11:00:31.482Z,1002.91
2017-08-03T11:01:31.469Z,1002.94
2017-08-03T11:02:31.451Z,1002.96
2017-08-03T11:03:31.435Z,1002.95
2017-08-03T11:04:31.420Z,1002.97
2017-08-03T11:05:31.403Z,1002.96
2017-08-03T11:06:31.388Z,1002.91
2017-08-03T11:07:31.371Z,1002.97
2017-08-03T11:08:31.350Z,1002.93
2017-08-03T11:09:31.338Z,1003.01
2017-08-03T11:10:31.322Z,1003.03
2017-08-03T11:11:31.308Z,1003.04
2017-08-03T11:12:31.290Z,1003.03
2017-08-03T11:13:31.273Z,1003.05
2017-08-03T11:14:31.256Z,1003.15
2017-08-03T11:15:31.243Z,1003.18
2017-08-03T11:16:31.224Z,1003.17
2017-08-03T11:17:31.206Z,1003.13
2017-08-03T11:18:31.187Z,1003.23
2017-08-03T11:19:31.170Z,1003.26
2017-08-03T11:20:31.152Z,1003.21
2017-08-03T11:21:31.136Z,1003.21
2017-08-03T11:22:31.121Z,1003.18
2017-08-03T11:23:31.109Z,1003.26
2017-08-03T11:24:31.082Z,1003.28
2017-08-03T11:25:31.069Z,1003.34
2017-08-03T11:26:31.049Z,1003.37
2017-08-03T11:27:31.034Z,1003.41
2017-08-03T11:28:31.016Z,1003.51
2017-08-03T11:29:30.998Z,1003.39
2017-08-03T11:30:30.987Z,1003.48
2017-08-03T11:31:30.963Z,1003.4
2017-08-03T11:32:30.946Z,1003.59
2017-08-03T11:33:30.927Z,1003.58
2017-08-03T11:34:30.910Z,1003.52
2017-08-03T11:35:30.891Z,1003.52
2017-08-03T11:36:30.883Z,1003.53
2017-08-03T11:37:30.856Z,1003.52
2017-08-03T11:38:31.088Z,1003.52
2017-08-03T11:39:30.820Z,1003.58
2017-08-03T11:40:30.806Z,1003.61
2017-08-03T11:41:30.790Z,1003.63
2017-08-03T11:42:30.773Z,1003.66
2017-08-03T11:43:30.753Z,1003.68
2017-08-03T11:44:30.736Z,1003.63
2017-08-03T11:45:30.720Z,1003.7
2017-08-03T11:46:30.702Z,1003.65
2017-08-03T11:47:30.687Z,1003.65
2017-08-03T11:48:30.667Z,1003.72
2017-08-03T11:49:30.649Z,1003.72
2017-08-03T11:50:30.632Z,1003.72
2017-08-03T11:51:30.617Z,1003.71
2017-08-03T11:52:30.597Z,1003.75
2017-08-03T11:53:30.580Z,1003.79
2017-08-03T11:54:30.565Z,1003.77
2017-08-03T11:55:30.552Z,1003.75
2017-08-03T11:56:30.529Z,1003.78
2017-08-03T11:57:30.514Z,1003.68
2017-08-03T11:58:30.497Z,1003.8
2017-08-03T11:59:30.478Z,1003.67
2017-08-03T12:00:30.463Z,1003.71
2017-08-03T12:01:30.441Z,1003.63
2017-08-03T12:02:30.426Z,1003.7
2017-08-03T12:03:30.407Z,1003.68
2017-08-03T12:04:30.391Z,1003.7
2017-08-03T12:05:30.376Z,1003.7
2017-08-03T12:06:30.380Z,1003.63
2017-08-03T12:07:30.338Z,1003.61
2017-08-03T12:08:30.322Z,1003.6